AFL1815 URSS-UWLL
Flight info
| Callsign | AFL1815 |
|---|---|
| Flight time | N/A |
| Altitude | 32000 |
| Route | ADNET1D ADNET W79 NZ B145 NOBLO/K0804F340 B145 ER G128 ST G900 OBABI/K0815F330 G900 KR P135 DAFOS T789 NEPNI NEPNI1E |
| Aircraft | A320/M-SDE3FGHIRWY/LB1 |
Departure
| Time | N/A |
|---|---|
| Airport | Sochi International Airport (URSS) |
Arrival
| Time | 2026-04-30 17:55 |
|---|---|
| Airport | Ulyanovsk Baratayevka Airport (UWLL) |
| Time | Latitude | Longitude | Altitude | Speed | Heading |
|---|---|---|---|---|---|
| 2026-04-30 17:39 | 53.19558 | 47.19607 | 22409 ft | 468 kts | 30° |
| 2026-04-30 17:41 | 53.41491 | 47.39802 | 17909 ft | 436 kts | 30° |
| 2026-04-30 17:42 | 53.46731 | 47.44650 | 16913 ft | 425 kts | 30° |
| 2026-04-30 17:42 | 53.54392 | 47.51769 | 15387 ft | 412 kts | 29° |
| 2026-04-30 17:43 | 53.59361 | 47.56412 | 14427 ft | 402 kts | 29° |
| 2026-04-30 17:44 | 53.66589 | 47.63177 | 12938 ft | 388 kts | 29° |
| 2026-04-30 17:44 | 53.73488 | 47.69661 | 11902 ft | 360 kts | 30° |
| 2026-04-30 17:46 | 53.83797 | 47.79388 | 10402 ft | 328 kts | 30° |
| 2026-04-30 17:47 | 53.91624 | 47.86827 | 8832 ft | 315 kts | 30° |
| 2026-04-30 17:48 | 53.98963 | 47.93815 | 7327 ft | 284 kts | 30° |
| 2026-04-30 17:48 | 54.03462 | 47.98118 | 5475 ft | 277 kts | 30° |
| 2026-04-30 17:49 | 54.10168 | 48.04556 | 3842 ft | 217 kts | 30° |
| 2026-04-30 17:50 | 54.14480 | 48.09005 | 3063 ft | 174 kts | 34° |
| 2026-04-30 17:51 | 54.17129 | 48.11962 | 2556 ft | 139 kts | 32° |
| 2026-04-30 17:52 | 54.19529 | 48.14537 | 1993 ft | 134 kts | 31° |
| 2026-04-30 17:53 | 54.23481 | 48.18751 | 1047 ft | 136 kts | 32° |
| 2026-04-30 17:54 | 54.26685 | 48.22223 | 434 ft | 126 kts | 33° |
| 2026-04-30 17:55 | 54.27649 | 48.23350 | 409 ft | 27 kts | 77° |
| 2026-04-30 17:56 | 54.27672 | 48.23550 | 403 ft | 0 kts | 77° |
| 2026-04-30 17:57 | 54.27772 | 48.23806 | 401 ft | 16 kts | 31° |
| 2026-04-30 17:58 | 54.28147 | 48.24192 | 391 ft | 16 kts | 2° |
| 2026-04-30 17:59 | 54.28377 | 48.23669 | 388 ft | 0 kts | 303° |
| 2026-04-30 18:00 | 54.28377 | 48.23668 | 388 ft | 1 kts | 303° |
| 2026-04-30 18:01 | 54.28425 | 48.23546 | 384 ft | 0 kts | 305° |
| 2026-04-30 18:02 | 54.28443 | 48.23495 | 385 ft | 5 kts | 301° |
| 2026-04-30 18:02 | 54.28518 | 48.23267 | 389 ft | 7 kts | 295° |
| 2026-04-30 18:03 | 54.28596 | 48.23302 | 389 ft | 4 kts | 76° |
| 2026-04-30 18:04 | 54.28564 | 48.23382 | 388 ft | 2 kts | 124° |
| 2026-04-30 18:05 | 54.28563 | 48.23384 | 388 ft | 0 kts | 124° |